sensor_id;sensor_type;location;lat;lon;timestamp;temperature;humidity
76789;DHT22;65740;52.464;13.446;2023-02-28T00:00:51;19.00;39.30
76789;DHT22;65740;52.464;13.446;2023-02-28T00:03:17;19.00;39.40
76789;DHT22;65740;52.464;13.446;2023-02-28T00:05:43;19.00;39.30
76789;DHT22;65740;52.464;13.446;2023-02-28T00:08:09;19.00;39.20
76789;DHT22;65740;52.464;13.446;2023-02-28T00:10:35;18.90;39.20
76789;DHT22;65740;52.464;13.446;2023-02-28T00:13:05;18.90;39.10
76789;DHT22;65740;52.464;13.446;2023-02-28T00:15:32;18.90;39.10
76789;DHT22;65740;52.464;13.446;2023-02-28T00:17:58;18.90;39.20
76789;DHT22;65740;52.464;13.446;2023-02-28T00:20:24;18.90;39.10
76789;DHT22;65740;52.464;13.446;2023-02-28T00:22:51;18.90;39.10
76789;DHT22;65740;52.464;13.446;2023-02-28T00:25:22;18.90;39.10
76789;DHT22;65740;52.464;13.446;2023-02-28T00:27:48;18.90;39.10
76789;DHT22;65740;52.464;13.446;2023-02-28T00:30:16;18.90;39.00
76789;DHT22;65740;52.464;13.446;2023-02-28T00:32:42;18.90;39.10
76789;DHT22;65740;52.464;13.446;2023-02-28T00:35:08;18.90;38.90
76789;DHT22;65740;52.464;13.446;2023-02-28T00:37:34;18.90;39.10
76789;DHT22;65740;52.464;13.446;2023-02-28T00:40:00;18.90;39.00
76789;DHT22;65740;52.464;13.446;2023-02-28T00:42:26;18.90;39.00
76789;DHT22;65740;52.464;13.446;2023-02-28T00:44:52;18.90;38.80
76789;DHT22;65740;52.464;13.446;2023-02-28T00:47:17;18.90;38.90
76789;DHT22;65740;52.464;13.446;2023-02-28T00:49:43;18.90;38.90
76789;DHT22;65740;52.464;13.446;2023-02-28T00:52:09;18.90;39.60
76789;DHT22;65740;52.464;13.446;2023-02-28T00:54:34;18.80;38.80
76789;DHT22;65740;52.464;13.446;2023-02-28T00:57:00;18.80;38.90
76789;DHT22;65740;52.464;13.446;2023-02-28T00:59:26;18.80;38.80
76789;DHT22;65740;52.464;13.446;2023-02-28T01:01:52;18.90;38.70
76789;DHT22;65740;52.464;13.446;2023-02-28T01:04:17;18.80;38.80
76789;DHT22;65740;52.464;13.446;2023-02-28T01:06:43;18.80;38.80
76789;DHT22;65740;52.464;13.446;2023-02-28T01:09:09;18.80;38.80
76789;DHT22;65740;52.464;13.446;2023-02-28T01:11:35;18.80;38.60
76789;DHT22;65740;52.464;13.446;2023-02-28T01:14:01;18.80;38.70
76789;DHT22;65740;52.464;13.446;2023-02-28T01:16:27;18.80;38.70
76789;DHT22;65740;52.464;13.446;2023-02-28T01:18:53;18.80;38.60
76789;DHT22;65740;52.464;13.446;2023-02-28T01:21:20;18.80;38.70
76789;DHT22;65740;52.464;13.446;2023-02-28T01:23:46;18.80;38.70
76789;DHT22;65740;52.464;13.446;2023-02-28T01:26:18;18.80;38.70
76789;DHT22;65740;52.464;13.446;2023-02-28T01:28:44;18.80;38.70
76789;DHT22;65740;52.464;13.446;2023-02-28T01:31:11;18.80;38.70
76789;DHT22;65740;52.464;13.446;2023-02-28T01:33:37;18.80;38.60
76789;DHT22;65740;52.464;13.446;2023-02-28T01:36:10;18.80;38.50
76789;DHT22;65740;52.464;13.446;2023-02-28T01:38:36;18.80;38.60
76789;DHT22;65740;52.464;13.446;2023-02-28T01:41:02;18.80;38.60
76789;DHT22;65740;52.464;13.446;2023-02-28T01:43:52;18.80;38.70
76789;DHT22;65740;52.464;13.446;2023-02-28T01:46:16;18.80;38.60
76789;DHT22;65740;52.464;13.446;2023-02-28T01:48:56;18.80;38.50
76789;DHT22;65740;52.464;13.446;2023-02-28T01:54:12;18.80;38.50
76789;DHT22;65740;52.464;13.446;2023-02-28T01:56:43;18.80;38.50
76789;DHT22;65740;52.464;13.446;2023-02-28T01:59:12;18.80;38.50
76789;DHT22;65740;52.464;13.446;2023-02-28T02:01:38;18.70;38.40
76789;DHT22;65740;52.464;13.446;2023-02-28T02:04:04;18.70;38.30
76789;DHT22;65740;52.464;13.446;2023-02-28T02:06:40;18.80;38.40
76789;DHT22;65740;52.464;13.446;2023-02-28T02:09:07;18.70;38.30
76789;DHT22;65740;52.464;13.446;2023-02-28T02:11:34;18.70;38.40
76789;DHT22;65740;52.464;13.446;2023-02-28T02:17:32;18.80;38.40
76789;DHT22;65740;52.464;13.446;2023-02-28T02:20:06;18.80;38.40
76789;DHT22;65740;52.464;13.446;2023-02-28T02:22:37;18.70;38.30
76789;DHT22;65740;52.464;13.446;2023-02-28T02:34:17;18.70;38.20
76789;DHT22;65740;52.464;13.446;2023-02-28T02:36:50;18.70;38.10
76789;DHT22;65740;52.464;13.446;2023-02-28T02:39:42;18.70;38.20
76789;DHT22;65740;52.464;13.446;2023-02-28T02:43:02;18.70;38.20
76789;DHT22;65740;52.464;13.446;2023-02-28T02:45:14;18.70;38.20
76789;DHT22;65740;52.464;13.446;2023-02-28T02:47:41;18.70;38.20
76789;DHT22;65740;52.464;13.446;2023-02-28T02:50:12;18.70;38.10
76789;DHT22;65740;52.464;13.446;2023-02-28T02:52:43;18.70;38.10
76789;DHT22;65740;52.464;13.446;2023-02-28T02:55:11;18.70;38.00
76789;DHT22;65740;52.464;13.446;2023-02-28T02:57:48;18.70;37.90
76789;DHT22;65740;52.464;13.446;2023-02-28T03:00:18;18.70;38.00
76789;DHT22;65740;52.464;13.446;2023-02-28T03:02:46;18.70;37.90
76789;DHT22;65740;52.464;13.446;2023-02-28T03:05:19;18.70;37.90
76789;DHT22;65740;52.464;13.446;2023-02-28T03:07:46;18.70;37.90
76789;DHT22;65740;52.464;13.446;2023-02-28T03:15:39;18.60;37.80
76789;DHT22;65740;52.464;13.446;2023-02-28T03:18:21;18.60;37.80
76789;DHT22;65740;52.464;13.446;2023-02-28T03:21:06;18.60;37.80
76789;DHT22;65740;52.464;13.446;2023-02-28T03:23:52;18.70;37.80
76789;DHT22;65740;52.464;13.446;2023-02-28T03:26:26;18.60;37.60
76789;DHT22;65740;52.464;13.446;2023-02-28T03:31:43;18.60;37.70
76789;DHT22;65740;52.464;13.446;2023-02-28T03:34:24;18.60;37.50
76789;DHT22;65740;52.464;13.446;2023-02-28T03:36:55;18.60;37.50
76789;DHT22;65740;52.464;13.446;2023-02-28T03:39:24;18.60;37.70
76789;DHT22;65740;52.464;13.446;2023-02-28T03:42:03;18.60;37.40
76789;DHT22;65740;52.464;13.446;2023-02-28T03:44:39;18.60;37.50
76789;DHT22;65740;52.464;13.446;2023-02-28T03:47:16;18.60;37.50
76789;DHT22;65740;52.464;13.446;2023-02-28T03:50:07;18.60;37.40
76789;DHT22;65740;52.464;13.446;2023-02-28T03:52:40;18.60;37.40
76789;DHT22;65740;52.464;13.446;2023-02-28T03:55:12;18.60;37.60
76789;DHT22;65740;52.464;13.446;2023-02-28T03:57:40;18.50;37.40
76789;DHT22;65740;52.464;13.446;2023-02-28T04:02:33;18.50;37.30
76789;DHT22;65740;52.464;13.446;2023-02-28T04:05:00;18.50;37.40
76789;DHT22;65740;52.464;13.446;2023-02-28T04:07:29;18.50;38.00
76789;DHT22;65740;52.464;13.446;2023-02-28T04:09:55;18.50;38.00
76789;DHT22;65740;52.464;13.446;2023-02-28T04:12:20;18.50;37.30
76789;DHT22;65740;52.464;13.446;2023-02-28T04:14:48;18.50;37.20
76789;DHT22;65740;52.464;13.446;2023-02-28T04:17:14;18.50;37.40
76789;DHT22;65740;52.464;13.446;2023-02-28T04:19:40;18.50;37.10
76789;DHT22;65740;52.464;13.446;2023-02-28T04:22:05;18.60;37.30
76789;DHT22;65740;52.464;13.446;2023-02-28T04:24:31;18.50;37.00
76789;DHT22;65740;52.464;13.446;2023-02-28T04:26:57;18.50;37.20
76789;DHT22;65740;52.464;13.446;2023-02-28T04:29:28;18.50;37.30
76789;DHT22;65740;52.464;13.446;2023-02-28T04:31:55;18.50;37.10
76789;DHT22;65740;52.464;13.446;2023-02-28T04:34:25;18.50;37.10
76789;DHT22;65740;52.464;13.446;2023-02-28T04:36:51;18.50;37.00
76789;DHT22;65740;52.464;13.446;2023-02-28T04:39:19;18.50;37.10
76789;DHT22;65740;52.464;13.446;2023-02-28T04:41:45;18.50;37.10
76789;DHT22;65740;52.464;13.446;2023-02-28T04:44:11;18.50;37.00
76789;DHT22;65740;52.464;13.446;2023-02-28T04:46:37;18.50;36.80
76789;DHT22;65740;52.464;13.446;2023-02-28T04:49:02;18.50;36.90
76789;DHT22;65740;52.464;13.446;2023-02-28T04:51:28;18.50;36.70
76789;DHT22;65740;52.464;13.446;2023-02-28T04:53:54;18.50;36.80
76789;DHT22;65740;52.464;13.446;2023-02-28T04:56:20;18.50;36.70
76789;DHT22;65740;52.464;13.446;2023-02-28T04:58:46;18.50;36.70
76789;DHT22;65740;52.464;13.446;2023-02-28T05:01:29;18.50;36.30
76789;DHT22;65740;52.464;13.446;2023-02-28T05:03:57;18.50;36.70
76789;DHT22;65740;52.464;13.446;2023-02-28T05:06:25;18.40;36.30
76789;DHT22;65740;52.464;13.446;2023-02-28T05:08:51;18.40;36.30
76789;DHT22;65740;52.464;13.446;2023-02-28T05:13:44;18.40;36.50
76789;DHT22;65740;52.464;13.446;2023-02-28T05:16:10;18.40;36.40
76789;DHT22;65740;52.464;13.446;2023-02-28T05:18:36;18.40;36.20
76789;DHT22;65740;52.464;13.446;2023-02-28T05:21:02;18.40;36.20
76789;DHT22;65740;52.464;13.446;2023-02-28T05:23:28;18.40;36.20
76789;DHT22;65740;52.464;13.446;2023-02-28T05:25:55;18.40;36.90
76789;DHT22;65740;52.464;13.446;2023-02-28T05:28:21;18.40;36.20
76789;DHT22;65740;52.464;13.446;2023-02-28T05:30:47;18.40;36.20
76789;DHT22;65740;52.464;13.446;2023-02-28T05:33:13;18.40;36.20
76789;DHT22;65740;52.464;13.446;2023-02-28T05:35:39;18.40;36.20
76789;DHT22;65740;52.464;13.446;2023-02-28T05:38:05;18.40;36.20
76789;DHT22;65740;52.464;13.446;2023-02-28T05:40:31;18.40;36.20
76789;DHT22;65740;52.464;13.446;2023-02-28T05:42:57;18.40;36.20
76789;DHT22;65740;52.464;13.446;2023-02-28T05:45:22;18.30;36.10
76789;DHT22;65740;52.464;13.446;2023-02-28T05:47:48;18.40;36.20
76789;DHT22;65740;52.464;13.446;2023-02-28T05:50:13;18.40;36.20
76789;DHT22;65740;52.464;13.446;2023-02-28T05:52:39;18.40;36.20
76789;DHT22;65740;52.464;13.446;2023-02-28T05:55:05;18.40;36.20
76789;DHT22;65740;52.464;13.446;2023-02-28T05:57:31;18.40;36.20
76789;DHT22;65740;52.464;13.446;2023-02-28T05:59:56;18.40;36.20
76789;DHT22;65740;52.464;13.446;2023-02-28T06:02:22;18.40;36.20
76789;DHT22;65740;52.464;13.446;2023-02-28T06:04:47;18.30;36.10
76789;DHT22;65740;52.464;13.446;2023-02-28T06:07:13;18.30;36.10
76789;DHT22;65740;52.464;13.446;2023-02-28T06:09:39;18.30;36.10
76789;DHT22;65740;52.464;13.446;2023-02-28T06:12:06;18.30;36.10
76789;DHT22;65740;52.464;13.446;2023-02-28T06:14:33;18.30;36.10
76789;DHT22;65740;52.464;13.446;2023-02-28T06:17:00;18.30;36.10
76789;DHT22;65740;52.464;13.446;2023-02-28T06:19:26;18.30;36.10
76789;DHT22;65740;52.464;13.446;2023-02-28T06:21:53;18.30;36.10
76789;DHT22;65740;52.464;13.446;2023-02-28T06:24:20;18.30;36.80
76789;DHT22;65740;52.464;13.446;2023-02-28T06:26:46;18.30;36.10
76789;DHT22;65740;52.464;13.446;2023-02-28T06:29:12;18.30;36.10
76789;DHT22;65740;52.464;13.446;2023-02-28T06:31:38;18.30;36.10
76789;DHT22;65740;52.464;13.446;2023-02-28T06:34:04;18.30;36.10
76789;DHT22;65740;52.464;13.446;2023-02-28T06:36:30;18.30;36.10
76789;DHT22;65740;52.464;13.446;2023-02-28T06:38:56;18.30;36.10
76789;DHT22;65740;52.464;13.446;2023-02-28T06:41:24;18.30;36.10
76789;DHT22;65740;52.464;13.446;2023-02-28T06:43:50;18.30;36.10
76789;DHT22;65740;52.464;13.446;2023-02-28T06:46:15;18.30;36.10
76789;DHT22;65740;52.464;13.446;2023-02-28T06:48:44;18.30;36.00
76789;DHT22;65740;52.464;13.446;2023-02-28T06:51:17;18.30;36.10
76789;DHT22;65740;52.464;13.446;2023-02-28T06:53:43;18.20;36.00
76789;DHT22;65740;52.464;13.446;2023-02-28T06:56:13;18.30;36.10
76789;DHT22;65740;52.464;13.446;2023-02-28T06:58:39;18.20;36.00
76789;DHT22;65740;52.464;13.446;2023-02-28T07:01:06;18.30;36.00
76789;DHT22;65740;52.464;13.446;2023-02-28T07:03:32;18.20;36.00
76789;DHT22;65740;52.464;13.446;2023-02-28T07:05:58;18.20;36.00
76789;DHT22;65740;52.464;13.446;2023-02-28T07:08:25;18.20;36.00
76789;DHT22;65740;52.464;13.446;2023-02-28T07:10:53;18.20;36.00
76789;DHT22;65740;52.464;13.446;2023-02-28T07:13:18;18.20;36.00
76789;DHT22;65740;52.464;13.446;2023-02-28T07:15:44;18.20;36.00
76789;DHT22;65740;52.464;13.446;2023-02-28T07:18:10;18.20;36.00
76789;DHT22;65740;52.464;13.446;2023-02-28T07:20:35;18.20;35.80
76789;DHT22;65740;52.464;13.446;2023-02-28T07:23:01;18.20;36.00
76789;DHT22;65740;52.464;13.446;2023-02-28T07:25:28;18.30;35.80
76789;DHT22;65740;52.464;13.446;2023-02-28T07:27:55;18.20;35.60
76789;DHT22;65740;52.464;13.446;2023-02-28T07:30:21;18.20;35.60
76789;DHT22;65740;52.464;13.446;2023-02-28T07:32:47;18.20;35.70
76789;DHT22;65740;52.464;13.446;2023-02-28T07:35:13;18.30;35.80
76789;DHT22;65740;52.464;13.446;2023-02-28T07:37:41;18.20;36.00
76789;DHT22;65740;52.464;13.446;2023-02-28T07:40:09;18.20;36.00
76789;DHT22;65740;52.464;13.446;2023-02-28T07:42:36;18.20;35.40
76789;DHT22;65740;52.464;13.446;2023-02-28T07:45:03;18.20;35.70
76789;DHT22;65740;52.464;13.446;2023-02-28T07:47:30;18.30;35.60
76789;DHT22;65740;52.464;13.446;2023-02-28T07:49:56;18.30;35.40
76789;DHT22;65740;52.464;13.446;2023-02-28T07:52:22;18.30;35.60
76789;DHT22;65740;52.464;13.446;2023-02-28T07:54:49;18.30;35.20
76789;DHT22;65740;52.464;13.446;2023-02-28T07:57:15;18.30;35.10
76789;DHT22;65740;52.464;13.446;2023-02-28T07:59:41;18.30;35.20
76789;DHT22;65740;52.464;13.446;2023-02-28T08:02:06;18.30;35.00
76789;DHT22;65740;52.464;13.446;2023-02-28T08:04:32;18.30;35.10
76789;DHT22;65740;52.464;13.446;2023-02-28T08:06:58;18.30;35.10
76789;DHT22;65740;52.464;13.446;2023-02-28T08:09:24;18.30;35.00
76789;DHT22;65740;52.464;13.446;2023-02-28T08:11:49;18.30;34.90
76789;DHT22;65740;52.464;13.446;2023-02-28T08:14:15;18.30;34.70
76789;DHT22;65740;52.464;13.446;2023-02-28T08:16:41;18.30;34.60
76789;DHT22;65740;52.464;13.446;2023-02-28T08:19:08;18.30;34.90
76789;DHT22;65740;52.464;13.446;2023-02-28T08:21:34;18.30;34.60
76789;DHT22;65740;52.464;13.446;2023-02-28T08:24:00;18.30;34.50
76789;DHT22;65740;52.464;13.446;2023-02-28T08:26:25;18.40;34.60
76789;DHT22;65740;52.464;13.446;2023-02-28T08:28:51;18.30;34.80
76789;DHT22;65740;52.464;13.446;2023-02-28T08:31:17;18.30;35.10
76789;DHT22;65740;52.464;13.446;2023-02-28T08:33:43;18.30;35.00
76789;DHT22;65740;52.464;13.446;2023-02-28T08:36:10;18.40;34.90
76789;DHT22;65740;52.464;13.446;2023-02-28T08:38:36;18.40;34.90
76789;DHT22;65740;52.464;13.446;2023-02-28T08:41:08;18.40;34.90
76789;DHT22;65740;52.464;13.446;2023-02-28T08:43:35;18.40;34.90
76789;DHT22;65740;52.464;13.446;2023-02-28T08:46:00;18.40;35.00
76789;DHT22;65740;52.464;13.446;2023-02-28T08:48:28;18.40;35.00
76789;DHT22;65740;52.464;13.446;2023-02-28T08:50:59;18.40;34.90
76789;DHT22;65740;52.464;13.446;2023-02-28T08:53:25;18.40;34.90
76789;DHT22;65740;52.464;13.446;2023-02-28T08:56:19;18.40;35.10
76789;DHT22;65740;52.464;13.446;2023-02-28T08:58:46;18.40;35.00
76789;DHT22;65740;52.464;13.446;2023-02-28T09:03:38;18.50;35.10
76789;DHT22;65740;52.464;13.446;2023-02-28T09:06:06;18.50;35.10
76789;DHT22;65740;52.464;13.446;2023-02-28T09:08:32;18.50;35.10
76789;DHT22;65740;52.464;13.446;2023-02-28T09:10:58;18.50;36.00
76789;DHT22;65740;52.464;13.446;2023-02-28T09:13:25;18.50;35.30
76789;DHT22;65740;52.464;13.446;2023-02-28T09:15:51;18.50;35.30
76789;DHT22;65740;52.464;13.446;2023-02-28T09:18:17;18.50;35.50
76789;DHT22;65740;52.464;13.446;2023-02-28T09:20:43;18.60;35.60
76789;DHT22;65740;52.464;13.446;2023-02-28T09:23:10;18.60;35.90
76789;DHT22;65740;52.464;13.446;2023-02-28T09:25:37;18.60;36.00
76789;DHT22;65740;52.464;13.446;2023-02-28T09:28:03;18.60;36.20
76789;DHT22;65740;52.464;13.446;2023-02-28T09:30:29;18.60;36.40
76789;DHT22;65740;52.464;13.446;2023-02-28T09:32:55;18.70;36.20
76789;DHT22;65740;52.464;13.446;2023-02-28T09:35:21;18.60;36.10
76789;DHT22;65740;52.464;13.446;2023-02-28T09:37:51;18.70;36.40
76789;DHT22;65740;52.464;13.446;2023-02-28T09:40:18;18.60;36.40
76789;DHT22;65740;52.464;13.446;2023-02-28T09:42:49;18.70;36.50
76789;DHT22;65740;52.464;13.446;2023-02-28T09:45:37;18.70;36.40
76789;DHT22;65740;52.464;13.446;2023-02-28T09:48:17;18.70;36.50
76789;DHT22;65740;52.464;13.446;2023-02-28T09:50:52;18.70;36.40
76789;DHT22;65740;52.464;13.446;2023-02-28T09:55:51;18.70;36.50
76789;DHT22;65740;52.464;13.446;2023-02-28T09:58:28;18.80;36.50
76789;DHT22;65740;52.464;13.446;2023-02-28T10:01:05;18.80;36.50
76789;DHT22;65740;52.464;13.446;2023-02-28T10:03:38;18.80;36.50
76789;DHT22;65740;52.464;13.446;2023-02-28T10:06:20;18.80;36.50
76789;DHT22;65740;52.464;13.446;2023-02-28T10:08:56;18.90;36.60
76789;DHT22;65740;52.464;13.446;2023-02-28T10:11:26;18.90;36.60
76789;DHT22;65740;52.464;13.446;2023-02-28T10:14:10;18.90;36.60
76789;DHT22;65740;52.464;13.446;2023-02-28T10:16:42;18.90;36.60
76789;DHT22;65740;52.464;13.446;2023-02-28T10:19:25;18.90;36.60
76789;DHT22;65740;52.464;13.446;2023-02-28T10:22:20;18.90;36.60
76789;DHT22;65740;52.464;13.446;2023-02-28T10:24:57;18.90;36.60
76789;DHT22;65740;52.464;13.446;2023-02-28T10:27:34;19.00;36.70
76789;DHT22;65740;52.464;13.446;2023-02-28T10:30:01;19.00;36.70
76789;DHT22;65740;52.464;13.446;2023-02-28T10:32:31;19.00;36.70
76789;DHT22;65740;52.464;13.446;2023-02-28T10:37:42;19.00;37.10
76789;DHT22;65740;52.464;13.446;2023-02-28T10:40:34;19.00;36.80
76789;DHT22;65740;52.464;13.446;2023-02-28T10:43:25;19.10;37.40
76789;DHT22;65740;52.464;13.446;2023-02-28T10:50:56;19.10;37.20
76789;DHT22;65740;52.464;13.446;2023-02-28T10:56:03;19.10;37.60
76789;DHT22;65740;52.464;13.446;2023-02-28T11:01:40;19.10;37.60
76789;DHT22;65740;52.464;13.446;2023-02-28T11:07:00;19.20;38.10
76789;DHT22;65740;52.464;13.446;2023-02-28T11:09:39;19.20;37.80
76789;DHT22;65740;52.464;13.446;2023-02-28T11:12:07;19.20;37.90
76789;DHT22;65740;52.464;13.446;2023-02-28T11:14:48;19.20;37.90
76789;DHT22;65740;52.464;13.446;2023-02-28T11:17:21;19.20;38.40
76789;DHT22;65740;52.464;13.446;2023-02-28T11:19:51;19.20;38.40
76789;DHT22;65740;52.464;13.446;2023-02-28T11:22:21;19.30;38.20
76789;DHT22;65740;52.464;13.446;2023-02-28T11:24:53;19.30;38.70
76789;DHT22;65740;52.464;13.446;2023-02-28T11:27:42;19.30;38.70
76789;DHT22;65740;52.464;13.446;2023-02-28T11:30:42;19.30;38.70
76789;DHT22;65740;52.464;13.446;2023-02-28T11:33:29;19.40;38.70
76789;DHT22;65740;52.464;13.446;2023-02-28T11:36:02;19.30;39.10
76789;DHT22;65740;52.464;13.446;2023-02-28T11:38:28;19.30;39.30
76789;DHT22;65740;52.464;13.446;2023-02-28T11:43:39;19.40;39.40
76789;DHT22;65740;52.464;13.446;2023-02-28T11:49:05;19.40;39.10
76789;DHT22;65740;52.464;13.446;2023-02-28T11:51:35;19.40;39.20
76789;DHT22;65740;52.464;13.446;2023-02-28T11:56:48;19.40;39.20
76789;DHT22;65740;52.464;13.446;2023-02-28T11:59:38;19.50;39.30
76789;DHT22;65740;52.464;13.446;2023-02-28T12:02:26;19.40;39.60
76789;DHT22;65740;52.464;13.446;2023-02-28T12:08:06;19.50;39.50
76789;DHT22;65740;52.464;13.446;2023-02-28T12:11:03;19.50;39.90
76789;DHT22;65740;52.464;13.446;2023-02-28T12:19:06;19.50;39.90
76789;DHT22;65740;52.464;13.446;2023-02-28T12:27:03;19.50;40.80
76789;DHT22;65740;52.464;13.446;2023-02-28T12:29:50;19.50;40.70
76789;DHT22;65740;52.464;13.446;2023-02-28T12:32:26;19.50;41.00
76789;DHT22;65740;52.464;13.446;2023-02-28T12:35:00;19.50;41.10
76789;DHT22;65740;52.464;13.446;2023-02-28T12:40:23;19.50;41.30
76789;DHT22;65740;52.464;13.446;2023-02-28T12:42:58;19.60;41.30
76789;DHT22;65740;52.464;13.446;2023-02-28T12:51:00;19.60;41.80
76789;DHT22;65740;52.464;13.446;2023-02-28T13:10:07;19.60;40.00
76789;DHT22;65740;52.464;13.446;2023-02-28T13:12:34;19.60;39.40
76789;DHT22;65740;52.464;13.446;2023-02-28T13:15:32;19.60;40.30
76789;DHT22;65740;52.464;13.446;2023-02-28T13:18:03;19.70;39.80
76789;DHT22;65740;52.464;13.446;2023-02-28T13:20:47;19.70;40.00
76789;DHT22;65740;52.464;13.446;2023-02-28T13:23:40;19.60;40.40
76789;DHT22;65740;52.464;13.446;2023-02-28T13:26:06;19.70;40.90
76789;DHT22;65740;52.464;13.446;2023-02-28T13:31:18;19.80;41.10
76789;DHT22;65740;52.464;13.446;2023-02-28T13:38:46;19.90;40.60
76789;DHT22;65740;52.464;13.446;2023-02-28T13:44:14;19.90;40.60
76789;DHT22;65740;52.464;13.446;2023-02-28T13:52:16;19.90;40.80
76789;DHT22;65740;52.464;13.446;2023-02-28T14:08:59;19.90;40.40
76789;DHT22;65740;52.464;13.446;2023-02-28T14:11:37;20.00;40.40
76789;DHT22;65740;52.464;13.446;2023-02-28T14:14:05;20.00;40.70
76789;DHT22;65740;52.464;13.446;2023-02-28T14:16:41;20.00;40.90
76789;DHT22;65740;52.464;13.446;2023-02-28T14:19:17;20.00;40.80
76789;DHT22;65740;52.464;13.446;2023-02-28T14:27:42;20.10;41.50
76789;DHT22;65740;52.464;13.446;2023-02-28T14:33:22;20.10;42.30
76789;DHT22;65740;52.464;13.446;2023-02-28T14:38:33;20.20;41.60
76789;DHT22;65740;52.464;13.446;2023-02-28T14:41:05;20.20;42.10
76789;DHT22;65740;52.464;13.446;2023-02-28T14:43:32;20.20;43.30
76789;DHT22;65740;52.464;13.446;2023-02-28T14:46:00;20.10;43.40
76789;DHT22;65740;52.464;13.446;2023-02-28T14:48:27;20.20;42.30
76789;DHT22;65740;52.464;13.446;2023-02-28T14:50:55;20.20;42.80
76789;DHT22;65740;52.464;13.446;2023-02-28T14:53:25;20.20;42.30
76789;DHT22;65740;52.464;13.446;2023-02-28T14:55:51;20.20;42.70
76789;DHT22;65740;52.464;13.446;2023-02-28T14:58:27;20.20;42.20
76789;DHT22;65740;52.464;13.446;2023-02-28T15:00:55;20.30;42.30
76789;DHT22;65740;52.464;13.446;2023-02-28T15:03:31;20.20;42.30
76789;DHT22;65740;52.464;13.446;2023-02-28T15:06:13;20.20;42.70
76789;DHT22;65740;52.464;13.446;2023-02-28T15:08:39;20.20;42.70
76789;DHT22;65740;52.464;13.446;2023-02-28T15:11:17;20.20;42.50
76789;DHT22;65740;52.464;13.446;2023-02-28T15:13:51;20.20;42.30
76789;DHT22;65740;52.464;13.446;2023-02-28T15:16:20;20.30;42.40
76789;DHT22;65740;52.464;13.446;2023-02-28T15:19:00;20.20;42.30
76789;DHT22;65740;52.464;13.446;2023-02-28T15:21:35;20.20;42.90
76789;DHT22;65740;52.464;13.446;2023-02-28T15:26:38;20.30;43.10
76789;DHT22;65740;52.464;13.446;2023-02-28T15:29:07;20.30;43.20
76789;DHT22;65740;52.464;13.446;2023-02-28T15:31:37;20.20;43.40
76789;DHT22;65740;52.464;13.446;2023-02-28T15:34:12;20.30;42.60
76789;DHT22;65740;52.464;13.446;2023-02-28T15:36:40;20.20;42.90
76789;DHT22;65740;52.464;13.446;2023-02-28T15:39:21;20.30;42.60
76789;DHT22;65740;52.464;13.446;2023-02-28T15:41:47;20.30;42.70
76789;DHT22;65740;52.464;13.446;2023-02-28T15:44:28;20.40;43.20
76789;DHT22;65740;52.464;13.446;2023-02-28T15:47:16;20.30;43.40
76789;DHT22;65740;52.464;13.446;2023-02-28T15:49:49;20.40;42.80
76789;DHT22;65740;52.464;13.446;2023-02-28T15:52:20;20.30;43.30
76789;DHT22;65740;52.464;13.446;2023-02-28T15:54:47;20.30;43.50
76789;DHT22;65740;52.464;13.446;2023-02-28T15:57:21;20.40;43.00
76789;DHT22;65740;52.464;13.446;2023-02-28T15:59:54;20.30;43.20
76789;DHT22;65740;52.464;13.446;2023-02-28T16:02:22;20.40;42.50
76789;DHT22;65740;52.464;13.446;2023-02-28T16:05:19;20.40;43.00
76789;DHT22;65740;52.464;13.446;2023-02-28T16:07:46;20.40;43.10
76789;DHT22;65740;52.464;13.446;2023-02-28T16:10:13;20.40;42.70
76789;DHT22;65740;52.464;13.446;2023-02-28T16:12:40;20.50;42.60
76789;DHT22;65740;52.464;13.446;2023-02-28T16:17:45;20.50;42.90
76789;DHT22;65740;52.464;13.446;2023-02-28T16:20:32;20.60;42.90
76789;DHT22;65740;52.464;13.446;2023-02-28T16:22:58;20.50;42.90
76789;DHT22;65740;52.464;13.446;2023-02-28T16:25:33;20.50;42.90
76789;DHT22;65740;52.464;13.446;2023-02-28T16:27:59;20.50;43.00
76789;DHT22;65740;52.464;13.446;2023-02-28T16:30:27;20.50;43.40
76789;DHT22;65740;52.464;13.446;2023-02-28T16:32:54;20.50;43.30
76789;DHT22;65740;52.464;13.446;2023-02-28T16:35:21;20.50;43.60
76789;DHT22;65740;52.464;13.446;2023-02-28T16:37:47;20.50;43.80
76789;DHT22;65740;52.464;13.446;2023-02-28T16:40:18;20.50;44.00
76789;DHT22;65740;52.464;13.446;2023-02-28T16:42:47;20.50;44.00
76789;DHT22;65740;52.464;13.446;2023-02-28T16:45:31;20.50;43.50
76789;DHT22;65740;52.464;13.446;2023-02-28T16:47:57;20.40;44.20
76789;DHT22;65740;52.464;13.446;2023-02-28T16:50:28;20.40;43.70
76789;DHT22;65740;52.464;13.446;2023-02-28T16:52:54;20.40;44.00
76789;DHT22;65740;52.464;13.446;2023-02-28T16:55:20;20.40;44.20
76789;DHT22;65740;52.464;13.446;2023-02-28T16:57:54;20.40;44.10
76789;DHT22;65740;52.464;13.446;2023-02-28T17:00:20;20.40;43.80
76789;DHT22;65740;52.464;13.446;2023-02-28T17:02:46;20.40;43.30
76789;DHT22;65740;52.464;13.446;2023-02-28T17:05:12;20.40;43.70
76789;DHT22;65740;52.464;13.446;2023-02-28T17:07:39;20.40;43.90
76789;DHT22;65740;52.464;13.446;2023-02-28T17:10:17;20.40;44.00
76789;DHT22;65740;52.464;13.446;2023-02-28T17:12:43;20.30;43.70
76789;DHT22;65740;52.464;13.446;2023-02-28T17:15:10;20.30;43.80
76789;DHT22;65740;52.464;13.446;2023-02-28T17:17:36;20.40;43.90
76789;DHT22;65740;52.464;13.446;2023-02-28T17:20:03;20.40;43.70
76789;DHT22;65740;52.464;13.446;2023-02-28T17:22:28;20.30;43.60
76789;DHT22;65740;52.464;13.446;2023-02-28T17:24:54;20.30;43.90
76789;DHT22;65740;52.464;13.446;2023-02-28T17:27:24;20.30;43.80
76789;DHT22;65740;52.464;13.446;2023-02-28T17:29:51;20.30;43.80
76789;DHT22;65740;52.464;13.446;2023-02-28T17:32:16;20.30;43.90
76789;DHT22;65740;52.464;13.446;2023-02-28T17:34:42;20.30;43.80
76789;DHT22;65740;52.464;13.446;2023-02-28T17:37:09;20.30;44.40
76789;DHT22;65740;52.464;13.446;2023-02-28T17:39:35;20.30;43.80
76789;DHT22;65740;52.464;13.446;2023-02-28T17:42:01;20.30;43.70
76789;DHT22;65740;52.464;13.446;2023-02-28T17:44:27;20.30;43.70
76789;DHT22;65740;52.464;13.446;2023-02-28T17:46:54;20.30;43.70
76789;DHT22;65740;52.464;13.446;2023-02-28T17:49:20;20.30;43.60
76789;DHT22;65740;52.464;13.446;2023-02-28T17:51:46;20.30;43.40
76789;DHT22;65740;52.464;13.446;2023-02-28T17:54:12;20.20;43.50
76789;DHT22;65740;52.464;13.446;2023-02-28T17:56:40;20.20;43.40